sensor_id;sensor_type;location;lat;lon;timestamp;P1;durP1;ratioP1;P2;durP2;ratioP2
40204;SDS011;26963;42.666;23.366;2023-03-11T00:00:39;14.70;;;9.55;;
40204;SDS011;26963;42.666;23.366;2023-03-11T00:03:07;12.70;;;9.95;;
40204;SDS011;26963;42.666;23.366;2023-03-11T00:05:34;14.70;;;10.65;;
40204;SDS011;26963;42.666;23.366;2023-03-11T00:08:02;12.07;;;10.00;;
40204;SDS011;26963;42.666;23.366;2023-03-11T00:10:29;10.52;;;8.95;;
40204;SDS011;26963;42.666;23.366;2023-03-11T00:12:59;8.98;;;7.03;;
40204;SDS011;26963;42.666;23.366;2023-03-11T00:15:26;8.43;;;5.35;;
40204;SDS011;26963;42.666;23.366;2023-03-11T00:17:53;5.78;;;4.05;;
40204;SDS011;26963;42.666;23.366;2023-03-11T00:20:20;6.22;;;3.38;;
40204;SDS011;26963;42.666;23.366;2023-03-11T00:22:48;4.72;;;2.45;;
40204;SDS011;26963;42.666;23.366;2023-03-11T00:25:15;3.45;;;2.17;;
40204;SDS011;26963;42.666;23.366;2023-03-11T00:27:41;2.75;;;1.60;;
40204;SDS011;26963;42.666;23.366;2023-03-11T00:30:07;2.70;;;1.40;;
40204;SDS011;26963;42.666;23.366;2023-03-11T00:32:33;2.45;;;1.50;;
40204;SDS011;26963;42.666;23.366;2023-03-11T00:34:59;2.58;;;1.40;;
40204;SDS011;26963;42.666;23.366;2023-03-11T00:37:24;2.15;;;1.15;;
40204;SDS011;26963;42.666;23.366;2023-03-11T00:39:50;1.70;;;1.27;;
40204;SDS011;26963;42.666;23.366;2023-03-11T00:42:15;2.35;;;1.30;;
40204;SDS011;26963;42.666;23.366;2023-03-11T00:44:41;2.83;;;1.00;;
40204;SDS011;26963;42.666;23.366;2023-03-11T00:47:07;2.13;;;1.10;;
40204;SDS011;26963;42.666;23.366;2023-03-11T00:49:35;3.30;;;1.40;;
40204;SDS011;26963;42.666;23.366;2023-03-11T00:52:01;4.15;;;1.42;;
40204;SDS011;26963;42.666;23.366;2023-03-11T00:54:29;1.83;;;1.10;;
40204;SDS011;26963;42.666;23.366;2023-03-11T00:56:54;3.28;;;1.20;;
40204;SDS011;26963;42.666;23.366;2023-03-11T00:59:20;1.63;;;1.00;;
40204;SDS011;26963;42.666;23.366;2023-03-11T01:01:48;3.08;;;1.00;;
40204;SDS011;26963;42.666;23.366;2023-03-11T01:04:14;2.05;;;1.40;;
40204;SDS011;26963;42.666;23.366;2023-03-11T01:06:39;3.40;;;1.48;;
40204;SDS011;26963;42.666;23.366;2023-03-11T01:09:05;2.67;;;1.27;;
40204;SDS011;26963;42.666;23.366;2023-03-11T01:11:30;1.60;;;1.20;;
40204;SDS011;26963;42.666;23.366;2023-03-11T01:13:56;2.15;;;1.10;;
40204;SDS011;26963;42.666;23.366;2023-03-11T01:16:22;3.03;;;1.20;;
40204;SDS011;26963;42.666;23.366;2023-03-11T01:18:48;2.90;;;1.13;;
40204;SDS011;26963;42.666;23.366;2023-03-11T01:21:13;1.25;;;1.13;;
40204;SDS011;26963;42.666;23.366;2023-03-11T01:23:39;2.28;;;1.23;;
40204;SDS011;26963;42.666;23.366;2023-03-11T01:26:06;7.30;;;4.90;;
40204;SDS011;26963;42.666;23.366;2023-03-11T01:28:34;1.77;;;1.30;;
40204;SDS011;26963;42.666;23.366;2023-03-11T01:30:59;1.88;;;0.80;;
40204;SDS011;26963;42.666;23.366;2023-03-11T01:33:25;3.17;;;1.90;;
40204;SDS011;26963;42.666;23.366;2023-03-11T01:35:51;3.05;;;1.70;;
40204;SDS011;26963;42.666;23.366;2023-03-11T01:38:19;2.40;;;1.23;;
40204;SDS011;26963;42.666;23.366;2023-03-11T01:40:46;2.05;;;1.00;;
40204;SDS011;26963;42.666;23.366;2023-03-11T01:46:06;1.65;;;1.30;;
40204;SDS011;26963;42.666;23.366;2023-03-11T01:48:35;1.92;;;1.20;;
40204;SDS011;26963;42.666;23.366;2023-03-11T01:51:03;4.88;;;1.20;;
40204;SDS011;26963;42.666;23.366;2023-03-11T01:53:30;2.40;;;1.10;;
40204;SDS011;26963;42.666;23.366;2023-03-11T01:56:00;2.22;;;0.90;;
40204;SDS011;26963;42.666;23.366;2023-03-11T01:58:30;2.95;;;1.63;;
40204;SDS011;26963;42.666;23.366;2023-03-11T02:00:58;3.55;;;1.85;;
40204;SDS011;26963;42.666;23.366;2023-03-11T02:03:26;2.72;;;1.67;;
40204;SDS011;26963;42.666;23.366;2023-03-11T02:05:55;4.10;;;2.10;;
40204;SDS011;26963;42.666;23.366;2023-03-11T02:08:23;3.33;;;2.00;;
40204;SDS011;26963;42.666;23.366;2023-03-11T02:10:49;4.03;;;2.00;;
40204;SDS011;26963;42.666;23.366;2023-03-11T02:13:17;3.17;;;2.30;;
40204;SDS011;26963;42.666;23.366;2023-03-11T02:15:44;3.45;;;2.55;;
40204;SDS011;26963;42.666;23.366;2023-03-11T02:18:10;5.85;;;3.15;;
40204;SDS011;26963;42.666;23.366;2023-03-11T02:23:33;5.25;;;2.70;;
40204;SDS011;26963;42.666;23.366;2023-03-11T02:28:52;5.65;;;3.63;;
40204;SDS011;26963;42.666;23.366;2023-03-11T02:31:18;7.00;;;3.10;;
40204;SDS011;26963;42.666;23.366;2023-03-11T02:33:45;5.85;;;3.05;;
40204;SDS011;26963;42.666;23.366;2023-03-11T02:36:34;5.28;;;3.30;;
40204;SDS011;26963;42.666;23.366;2023-03-11T02:39:03;4.68;;;3.42;;
40204;SDS011;26963;42.666;23.366;2023-03-11T02:41:29;5.38;;;3.65;;
40204;SDS011;26963;42.666;23.366;2023-03-11T02:43:57;7.18;;;3.58;;
40204;SDS011;26963;42.666;23.366;2023-03-11T02:46:23;4.72;;;3.42;;
40204;SDS011;26963;42.666;23.366;2023-03-11T02:48:49;4.80;;;3.65;;
40204;SDS011;26963;42.666;23.366;2023-03-11T02:51:17;4.22;;;3.45;;
40204;SDS011;26963;42.666;23.366;2023-03-11T02:53:45;5.90;;;3.83;;
40204;SDS011;26963;42.666;23.366;2023-03-11T02:56:13;5.82;;;4.10;;
40204;SDS011;26963;42.666;23.366;2023-03-11T02:58:39;5.22;;;3.33;;
40204;SDS011;26963;42.666;23.366;2023-03-11T03:01:05;6.57;;;4.60;;
40204;SDS011;26963;42.666;23.366;2023-03-11T03:03:30;5.25;;;4.30;;
40204;SDS011;26963;42.666;23.366;2023-03-11T03:05:56;5.93;;;4.63;;
40204;SDS011;26963;42.666;23.366;2023-03-11T03:08:21;6.45;;;4.68;;
40204;SDS011;26963;42.666;23.366;2023-03-11T03:10:47;7.00;;;4.63;;
40204;SDS011;26963;42.666;23.366;2023-03-11T03:13:12;4.70;;;3.83;;
40204;SDS011;26963;42.666;23.366;2023-03-11T03:15:38;5.97;;;4.60;;
40204;SDS011;26963;42.666;23.366;2023-03-11T03:18:03;4.30;;;3.65;;
40204;SDS011;26963;42.666;23.366;2023-03-11T03:20:29;4.32;;;3.78;;
40204;SDS011;26963;42.666;23.366;2023-03-11T03:22:55;4.72;;;3.72;;
40204;SDS011;26963;42.666;23.366;2023-03-11T03:25:20;5.40;;;3.88;;
40204;SDS011;26963;42.666;23.366;2023-03-11T03:27:46;4.80;;;3.67;;
40204;SDS011;26963;42.666;23.366;2023-03-11T03:30:12;4.40;;;2.80;;
40204;SDS011;26963;42.666;23.366;2023-03-11T03:32:38;4.38;;;3.08;;
40204;SDS011;26963;42.666;23.366;2023-03-11T03:35:04;4.57;;;2.97;;
40204;SDS011;26963;42.666;23.366;2023-03-11T03:37:34;3.25;;;2.80;;
40204;SDS011;26963;42.666;23.366;2023-03-11T03:40:00;5.40;;;3.10;;
40204;SDS011;26963;42.666;23.366;2023-03-11T03:42:27;4.90;;;2.90;;
40204;SDS011;26963;42.666;23.366;2023-03-11T03:44:53;4.70;;;3.13;;
40204;SDS011;26963;42.666;23.366;2023-03-11T03:47:18;5.75;;;3.10;;
40204;SDS011;26963;42.666;23.366;2023-03-11T03:49:44;4.03;;;2.78;;
40204;SDS011;26963;42.666;23.366;2023-03-11T03:52:10;5.80;;;3.15;;
40204;SDS011;26963;42.666;23.366;2023-03-11T03:54:36;5.05;;;3.38;;
40204;SDS011;26963;42.666;23.366;2023-03-11T03:57:02;4.65;;;3.20;;
40204;SDS011;26963;42.666;23.366;2023-03-11T03:59:28;6.68;;;3.40;;
40204;SDS011;26963;42.666;23.366;2023-03-11T04:01:54;5.10;;;3.90;;
40204;SDS011;26963;42.666;23.366;2023-03-11T04:04:19;6.93;;;4.03;;
40204;SDS011;26963;42.666;23.366;2023-03-11T04:06:45;6.65;;;4.53;;
40204;SDS011;26963;42.666;23.366;2023-03-11T04:09:11;6.88;;;4.68;;
40204;SDS011;26963;42.666;23.366;2023-03-11T04:11:37;6.93;;;4.38;;
40204;SDS011;26963;42.666;23.366;2023-03-11T04:14:03;5.80;;;4.65;;
40204;SDS011;26963;42.666;23.366;2023-03-11T04:16:29;6.30;;;4.10;;
40204;SDS011;26963;42.666;23.366;2023-03-11T04:18:55;5.53;;;4.05;;
40204;SDS011;26963;42.666;23.366;2023-03-11T04:21:20;6.20;;;4.28;;
40204;SDS011;26963;42.666;23.366;2023-03-11T04:23:46;5.95;;;3.85;;
40204;SDS011;26963;42.666;23.366;2023-03-11T04:26:12;5.63;;;3.53;;
40204;SDS011;26963;42.666;23.366;2023-03-11T04:28:37;5.55;;;3.90;;
40204;SDS011;26963;42.666;23.366;2023-03-11T04:31:05;6.03;;;3.65;;
40204;SDS011;26963;42.666;23.366;2023-03-11T04:33:31;5.53;;;3.97;;
40204;SDS011;26963;42.666;23.366;2023-03-11T04:35:57;5.18;;;3.80;;
40204;SDS011;26963;42.666;23.366;2023-03-11T04:38:23;5.13;;;3.28;;
40204;SDS011;26963;42.666;23.366;2023-03-11T04:40:49;6.10;;;4.03;;
40204;SDS011;26963;42.666;23.366;2023-03-11T04:43:14;8.15;;;6.40;;
40204;SDS011;26963;42.666;23.366;2023-03-11T04:45:41;5.30;;;3.50;;
40204;SDS011;26963;42.666;23.366;2023-03-11T04:48:07;5.50;;;4.03;;
40204;SDS011;26963;42.666;23.366;2023-03-11T04:50:33;4.57;;;3.38;;
40204;SDS011;26963;42.666;23.366;2023-03-11T04:52:59;4.70;;;3.08;;
40204;SDS011;26963;42.666;23.366;2023-03-11T04:55:24;4.03;;;2.63;;
40204;SDS011;26963;42.666;23.366;2023-03-11T04:57:50;5.00;;;2.97;;
40204;SDS011;26963;42.666;23.366;2023-03-11T05:00:16;3.63;;;2.40;;
40204;SDS011;26963;42.666;23.366;2023-03-11T05:02:49;3.00;;;2.00;;
40204;SDS011;26963;42.666;23.366;2023-03-11T05:05:14;2.65;;;1.60;;
40204;SDS011;26963;42.666;23.366;2023-03-11T05:07:40;3.58;;;2.08;;
40204;SDS011;26963;42.666;23.366;2023-03-11T05:10:06;2.75;;;1.50;;
40204;SDS011;26963;42.666;23.366;2023-03-11T05:12:32;1.88;;;1.50;;
40204;SDS011;26963;42.666;23.366;2023-03-11T05:14:58;2.72;;;1.77;;
40204;SDS011;26963;42.666;23.366;2023-03-11T05:17:42;4.75;;;2.97;;
40204;SDS011;26963;42.666;23.366;2023-03-11T05:20:08;3.55;;;2.30;;
40204;SDS011;26963;42.666;23.366;2023-03-11T05:22:34;1.70;;;1.20;;
40204;SDS011;26963;42.666;23.366;2023-03-11T05:25:00;1.85;;;1.00;;
40204;SDS011;26963;42.666;23.366;2023-03-11T05:27:29;1.40;;;1.10;;
40204;SDS011;26963;42.666;23.366;2023-03-11T05:29:55;4.15;;;1.38;;
40204;SDS011;26963;42.666;23.366;2023-03-11T05:32:20;1.73;;;1.27;;
40204;SDS011;26963;42.666;23.366;2023-03-11T05:34:46;1.58;;;1.10;;
40204;SDS011;26963;42.666;23.366;2023-03-11T05:37:12;3.05;;;1.90;;
40204;SDS011;26963;42.666;23.366;2023-03-11T05:39:38;4.82;;;2.13;;
40204;SDS011;26963;42.666;23.366;2023-03-11T05:42:04;1.95;;;0.90;;
40204;SDS011;26963;42.666;23.366;2023-03-11T05:44:30;2.33;;;1.00;;
40204;SDS011;26963;42.666;23.366;2023-03-11T05:46:56;2.95;;;1.20;;
40204;SDS011;26963;42.666;23.366;2023-03-11T05:49:22;3.58;;;1.38;;
40204;SDS011;26963;42.666;23.366;2023-03-11T05:51:48;1.70;;;1.00;;
40204;SDS011;26963;42.666;23.366;2023-03-11T05:54:14;1.23;;;1.02;;
40204;SDS011;26963;42.666;23.366;2023-03-11T05:56:41;2.50;;;1.20;;
40204;SDS011;26963;42.666;23.366;2023-03-11T05:59:11;2.25;;;1.60;;
40204;SDS011;26963;42.666;23.366;2023-03-11T06:01:38;2.20;;;1.38;;
40204;SDS011;26963;42.666;23.366;2023-03-11T06:04:04;1.85;;;1.40;;
40204;SDS011;26963;42.666;23.366;2023-03-11T06:06:31;2.47;;;1.10;;
40204;SDS011;26963;42.666;23.366;2023-03-11T06:08:56;2.95;;;1.70;;
40204;SDS011;26963;42.666;23.366;2023-03-11T06:11:22;5.53;;;3.42;;
40204;SDS011;26963;42.666;23.366;2023-03-11T06:13:54;1.85;;;1.40;;
40204;SDS011;26963;42.666;23.366;2023-03-11T06:16:24;3.65;;;1.60;;
40204;SDS011;26963;42.666;23.366;2023-03-11T06:18:50;2.50;;;1.50;;
40204;SDS011;26963;42.666;23.366;2023-03-11T06:21:19;2.30;;;1.10;;
40204;SDS011;26963;42.666;23.366;2023-03-11T06:26:17;1.23;;;0.80;;
40204;SDS011;26963;42.666;23.366;2023-03-11T06:28:44;2.47;;;1.30;;
40204;SDS011;26963;42.666;23.366;2023-03-11T06:31:15;2.15;;;1.30;;
40204;SDS011;26963;42.666;23.366;2023-03-11T06:36:09;2.80;;;1.83;;
40204;SDS011;26963;42.666;23.366;2023-03-11T06:38:37;2.75;;;1.52;;
40204;SDS011;26963;42.666;23.366;2023-03-11T06:41:04;4.22;;;1.38;;
40204;SDS011;26963;42.666;23.366;2023-03-11T06:43:31;3.50;;;1.30;;
40204;SDS011;26963;42.666;23.366;2023-03-11T06:45:57;2.72;;;1.50;;
40204;SDS011;26963;42.666;23.366;2023-03-11T06:48:23;4.13;;;2.53;;
40204;SDS011;26963;42.666;23.366;2023-03-11T06:51:08;2.80;;;1.60;;
40204;SDS011;26963;42.666;23.366;2023-03-11T06:53:34;2.38;;;1.45;;
40204;SDS011;26963;42.666;23.366;2023-03-11T06:56:04;3.60;;;1.98;;
40204;SDS011;26963;42.666;23.366;2023-03-11T06:58:36;2.40;;;1.50;;
40204;SDS011;26963;42.666;23.366;2023-03-11T07:01:06;6.43;;;2.92;;
40204;SDS011;26963;42.666;23.366;2023-03-11T07:03:36;2.17;;;1.30;;
40204;SDS011;26963;42.666;23.366;2023-03-11T07:06:02;1.33;;;1.00;;
40204;SDS011;26963;42.666;23.366;2023-03-11T07:08:28;1.33;;;1.17;;
40204;SDS011;26963;42.666;23.366;2023-03-11T07:11:01;2.38;;;1.40;;
40204;SDS011;26963;42.666;23.366;2023-03-11T07:13:30;2.03;;;1.40;;
40204;SDS011;26963;42.666;23.366;2023-03-11T07:16:04;2.70;;;1.27;;
40204;SDS011;26963;42.666;23.366;2023-03-11T07:18:34;2.08;;;0.88;;
40204;SDS011;26963;42.666;23.366;2023-03-11T07:21:01;2.50;;;1.55;;
40204;SDS011;26963;42.666;23.366;2023-03-11T07:23:27;3.78;;;1.70;;
40204;SDS011;26963;42.666;23.366;2023-03-11T07:25:53;3.15;;;1.80;;
40204;SDS011;26963;42.666;23.366;2023-03-11T07:28:20;6.65;;;3.92;;
40204;SDS011;26963;42.666;23.366;2023-03-11T07:30:49;9.27;;;6.10;;
40204;SDS011;26963;42.666;23.366;2023-03-11T07:33:16;2.25;;;1.70;;
40204;SDS011;26963;42.666;23.366;2023-03-11T07:35:42;3.63;;;2.10;;
40204;SDS011;26963;42.666;23.366;2023-03-11T07:38:07;3.65;;;2.10;;
40204;SDS011;26963;42.666;23.366;2023-03-11T07:40:33;2.08;;;1.52;;
40204;SDS011;26963;42.666;23.366;2023-03-11T07:42:59;1.98;;;1.30;;
40204;SDS011;26963;42.666;23.366;2023-03-11T07:45:24;3.40;;;2.30;;
40204;SDS011;26963;42.666;23.366;2023-03-11T07:47:50;3.67;;;2.10;;
40204;SDS011;26963;42.666;23.366;2023-03-11T07:50:16;5.28;;;3.10;;
40204;SDS011;26963;42.666;23.366;2023-03-11T07:52:42;4.57;;;2.40;;
40204;SDS011;26963;42.666;23.366;2023-03-11T07:55:08;4.03;;;2.72;;
40204;SDS011;26963;42.666;23.366;2023-03-11T07:57:33;4.50;;;1.90;;
40204;SDS011;26963;42.666;23.366;2023-03-11T07:59:59;8.32;;;5.10;;
40204;SDS011;26963;42.666;23.366;2023-03-11T08:02:25;9.95;;;6.28;;
40204;SDS011;26963;42.666;23.366;2023-03-11T08:04:51;5.03;;;2.72;;
40204;SDS011;26963;42.666;23.366;2023-03-11T08:07:19;5.18;;;2.50;;
40204;SDS011;26963;42.666;23.366;2023-03-11T08:09:45;5.95;;;2.83;;
40204;SDS011;26963;42.666;23.366;2023-03-11T08:12:10;4.03;;;1.95;;
40204;SDS011;26963;42.666;23.366;2023-03-11T08:14:36;2.72;;;1.73;;
40204;SDS011;26963;42.666;23.366;2023-03-11T08:17:03;4.55;;;2.92;;
40204;SDS011;26963;42.666;23.366;2023-03-11T08:19:32;5.15;;;2.67;;
40204;SDS011;26963;42.666;23.366;2023-03-11T08:21:59;2.15;;;1.50;;
40204;SDS011;26963;42.666;23.366;2023-03-11T08:24:26;2.75;;;1.55;;
40204;SDS011;26963;42.666;23.366;2023-03-11T08:26:51;8.93;;;2.00;;
40204;SDS011;26963;42.666;23.366;2023-03-11T08:29:17;3.10;;;1.77;;
40204;SDS011;26963;42.666;23.366;2023-03-11T08:31:42;3.60;;;1.60;;
40204;SDS011;26963;42.666;23.366;2023-03-11T08:34:08;3.80;;;1.60;;
40204;SDS011;26963;42.666;23.366;2023-03-11T08:36:34;2.80;;;1.67;;
40204;SDS011;26963;42.666;23.366;2023-03-11T08:39:00;4.70;;;2.75;;
40204;SDS011;26963;42.666;23.366;2023-03-11T08:41:26;6.07;;;1.58;;
40204;SDS011;26963;42.666;23.366;2023-03-11T08:43:52;4.57;;;2.25;;
40204;SDS011;26963;42.666;23.366;2023-03-11T08:48:49;5.25;;;2.22;;
40204;SDS011;26963;42.666;23.366;2023-03-11T08:51:14;5.07;;;1.90;;
40204;SDS011;26963;42.666;23.366;2023-03-11T08:53:40;2.92;;;1.90;;
40204;SDS011;26963;42.666;23.366;2023-03-11T08:56:06;3.95;;;1.58;;
40204;SDS011;26963;42.666;23.366;2023-03-11T08:58:32;4.47;;;2.25;;
40204;SDS011;26963;42.666;23.366;2023-03-11T09:00:57;2.35;;;1.33;;
40204;SDS011;26963;42.666;23.366;2023-03-11T09:03:23;3.45;;;1.85;;
40204;SDS011;26963;42.666;23.366;2023-03-11T09:05:55;5.40;;;2.40;;
40204;SDS011;26963;42.666;23.366;2023-03-11T09:08:21;4.47;;;2.10;;
40204;SDS011;26963;42.666;23.366;2023-03-11T09:10:47;2.85;;;1.33;;
40204;SDS011;26963;42.666;23.366;2023-03-11T09:13:12;3.15;;;1.95;;
40204;SDS011;26963;42.666;23.366;2023-03-11T09:15:38;3.05;;;1.40;;
40204;SDS011;26963;42.666;23.366;2023-03-11T09:18:04;6.00;;;1.83;;
40204;SDS011;26963;42.666;23.366;2023-03-11T09:20:32;3.63;;;1.60;;
40204;SDS011;26963;42.666;23.366;2023-03-11T09:22:58;4.50;;;1.67;;
40204;SDS011;26963;42.666;23.366;2023-03-11T09:25:23;2.30;;;1.52;;
40204;SDS011;26963;42.666;23.366;2023-03-11T09:27:49;5.43;;;2.80;;
40204;SDS011;26963;42.666;23.366;2023-03-11T09:30:14;2.45;;;1.63;;
40204;SDS011;26963;42.666;23.366;2023-03-11T09:32:40;3.08;;;1.90;;
40204;SDS011;26963;42.666;23.366;2023-03-11T09:35:05;2.83;;;1.40;;
40204;SDS011;26963;42.666;23.366;2023-03-11T09:37:34;4.45;;;1.90;;
40204;SDS011;26963;42.666;23.366;2023-03-11T09:40:00;4.53;;;1.58;;
40204;SDS011;26963;42.666;23.366;2023-03-11T09:42:33;4.97;;;1.88;;
40204;SDS011;26963;42.666;23.366;2023-03-11T09:45:18;2.08;;;1.25;;
40204;SDS011;26963;42.666;23.366;2023-03-11T09:51:09;2.65;;;1.48;;
40204;SDS011;26963;42.666;23.366;2023-03-11T09:53:45;2.80;;;1.52;;
40204;SDS011;26963;42.666;23.366;2023-03-11T09:56:18;3.55;;;2.00;;
40204;SDS011;26963;42.666;23.366;2023-03-11T09:58:49;5.28;;;2.92;;
40204;SDS011;26963;42.666;23.366;2023-03-11T10:03:45;6.18;;;1.52;;
40204;SDS011;26963;42.666;23.366;2023-03-11T10:06:25;6.50;;;3.38;;
40204;SDS011;26963;42.666;23.366;2023-03-11T10:23:07;4.07;;;1.60;;
40204;SDS011;26963;42.666;23.366;2023-03-11T10:25:48;3.60;;;1.02;;
40204;SDS011;26963;42.666;23.366;2023-03-11T10:28:23;4.82;;;1.60;;
40204;SDS011;26963;42.666;23.366;2023-03-11T10:31:04;1.95;;;1.20;;
40204;SDS011;26963;42.666;23.366;2023-03-11T10:33:44;3.20;;;1.45;;
40204;SDS011;26963;42.666;23.366;2023-03-11T10:36:22;5.32;;;1.20;;
40204;SDS011;26963;42.666;23.366;2023-03-11T10:38:51;3.80;;;1.45;;
40204;SDS011;26963;42.666;23.366;2023-03-11T10:44:01;4.45;;;1.30;;
40204;SDS011;26963;42.666;23.366;2023-03-11T10:46:31;2.60;;;1.10;;
40204;SDS011;26963;42.666;23.366;2023-03-11T10:48:57;1.75;;;0.98;;
40204;SDS011;26963;42.666;23.366;2023-03-11T10:51:23;3.70;;;1.52;;
40204;SDS011;26963;42.666;23.366;2023-03-11T10:53:52;3.25;;;1.35;;
40204;SDS011;26963;42.666;23.366;2023-03-11T10:56:28;2.85;;;1.27;;
40204;SDS011;26963;42.666;23.366;2023-03-11T10:58:56;5.43;;;1.77;;
40204;SDS011;26963;42.666;23.366;2023-03-11T11:01:23;1.75;;;1.10;;
40204;SDS011;26963;42.666;23.366;2023-03-11T11:03:51;5.43;;;1.70;;
40204;SDS011;26963;42.666;23.366;2023-03-11T11:09:05;3.10;;;1.70;;
40204;SDS011;26963;42.666;23.366;2023-03-11T11:11:38;3.25;;;1.80;;
40204;SDS011;26963;42.666;23.366;2023-03-11T11:14:04;2.75;;;1.35;;
40204;SDS011;26963;42.666;23.366;2023-03-11T11:16:31;2.55;;;1.30;;
40204;SDS011;26963;42.666;23.366;2023-03-11T11:19:01;2.33;;;1.00;;
40204;SDS011;26963;42.666;23.366;2023-03-11T11:21:41;2.60;;;1.45;;
40204;SDS011;26963;42.666;23.366;2023-03-11T11:29:40;5.93;;;3.80;;
40204;SDS011;26963;42.666;23.366;2023-03-11T11:34:41;2.92;;;1.50;;
40204;SDS011;26963;42.666;23.366;2023-03-11T11:37:17;3.17;;;1.15;;
40204;SDS011;26963;42.666;23.366;2023-03-11T11:39:57;3.60;;;2.10;;
40204;SDS011;26963;42.666;23.366;2023-03-11T11:44:58;3.63;;;1.70;;
40204;SDS011;26963;42.666;23.366;2023-03-11T11:47:29;2.88;;;1.50;;
40204;SDS011;26963;42.666;23.366;2023-03-11T11:50:00;2.58;;;1.10;;
40204;SDS011;26963;42.666;23.366;2023-03-11T11:52:36;3.50;;;1.30;;
40204;SDS011;26963;42.666;23.366;2023-03-11T11:55:20;4.20;;;1.40;;
40204;SDS011;26963;42.666;23.366;2023-03-11T11:57:52;3.53;;;1.52;;
40204;SDS011;26963;42.666;23.366;2023-03-11T12:00:18;2.90;;;1.67;;
40204;SDS011;26963;42.666;23.366;2023-03-11T12:02:52;5.40;;;1.80;;
40204;SDS011;26963;42.666;23.366;2023-03-11T12:06:01;7.35;;;1.73;;
40204;SDS011;26963;42.666;23.366;2023-03-11T12:27:26;3.58;;;1.77;;
40204;SDS011;26963;42.666;23.366;2023-03-11T12:29:58;4.63;;;1.70;;
40204;SDS011;26963;42.666;23.366;2023-03-11T12:32:30;5.40;;;2.22;;
40204;SDS011;26963;42.666;23.366;2023-03-11T12:35:01;2.92;;;1.80;;
40204;SDS011;26963;42.666;23.366;2023-03-11T12:37:54;7.25;;;3.38;;
40204;SDS011;26963;42.666;23.366;2023-03-11T12:43:23;5.80;;;3.28;;
40204;SDS011;26963;42.666;23.366;2023-03-11T12:45:49;3.30;;;1.50;;
40204;SDS011;26963;42.666;23.366;2023-03-11T12:50:51;4.78;;;1.40;;
40204;SDS011;26963;42.666;23.366;2023-03-11T12:53:19;4.72;;;1.75;;
40204;SDS011;26963;42.666;23.366;2023-03-11T13:02:02;3.72;;;2.28;;
40204;SDS011;26963;42.666;23.366;2023-03-11T13:10:44;4.25;;;2.40;;
40204;SDS011;26963;42.666;23.366;2023-03-11T13:15:49;3.92;;;2.33;;
40204;SDS011;26963;42.666;23.366;2023-03-11T13:20:49;6.88;;;1.60;;
40204;SDS011;26963;42.666;23.366;2023-03-11T13:36:58;4.13;;;2.00;;
40204;SDS011;26963;42.666;23.366;2023-03-11T13:42:13;3.53;;;2.17;;
40204;SDS011;26963;42.666;23.366;2023-03-11T13:44:49;3.15;;;1.40;;
40204;SDS011;26963;42.666;23.366;2023-03-11T13:47:16;3.42;;;1.73;;
40204;SDS011;26963;42.666;23.366;2023-03-11T13:52:46;4.13;;;1.85;;
40204;SDS011;26963;42.666;23.366;2023-03-11T13:57:51;4.80;;;2.97;;
40204;SDS011;26963;42.666;23.366;2023-03-11T14:00:19;3.40;;;1.92;;
40204;SDS011;26963;42.666;23.366;2023-03-11T14:02:50;1.50;;;1.10;;
40204;SDS011;26963;42.666;23.366;2023-03-11T14:05:26;2.40;;;1.67;;
40204;SDS011;26963;42.666;23.366;2023-03-11T14:08:10;3.97;;;1.55;;
40204;SDS011;26963;42.666;23.366;2023-03-11T14:10:37;2.78;;;1.42;;
40204;SDS011;26963;42.666;23.366;2023-03-11T14:13:13;4.38;;;1.60;;
40204;SDS011;26963;42.666;23.366;2023-03-11T14:15:42;2.67;;;1.58;;
40204;SDS011;26963;42.666;23.366;2023-03-11T14:18:31;3.90;;;2.33;;
40204;SDS011;26963;42.666;23.366;2023-03-11T14:20:57;5.07;;;2.50;;
40204;SDS011;26963;42.666;23.366;2023-03-11T14:23:26;3.17;;;2.28;;
40204;SDS011;26963;42.666;23.366;2023-03-11T14:25:58;3.85;;;2.20;;
40204;SDS011;26963;42.666;23.366;2023-03-11T14:28:25;6.27;;;2.30;;
40204;SDS011;26963;42.666;23.366;2023-03-11T14:30:55;3.17;;;1.80;;
40204;SDS011;26963;42.666;23.366;2023-03-11T14:33:22;4.68;;;1.77;;
40204;SDS011;26963;42.666;23.366;2023-03-11T14:35:52;3.92;;;2.00;;
40204;SDS011;26963;42.666;23.366;2023-03-11T14:38:24;3.33;;;1.90;;
40204;SDS011;26963;42.666;23.366;2023-03-11T14:40:53;2.30;;;1.65;;
40204;SDS011;26963;42.666;23.366;2023-03-11T14:43:23;4.93;;;1.98;;
40204;SDS011;26963;42.666;23.366;2023-03-11T14:45:49;3.47;;;1.80;;
40204;SDS011;26963;42.666;23.366;2023-03-11T14:50:50;3.05;;;1.73;;
40204;SDS011;26963;42.666;23.366;2023-03-11T14:53:25;4.05;;;2.72;;
40204;SDS011;26963;42.666;23.366;2023-03-11T14:55:56;9.40;;;4.32;;
40204;SDS011;26963;42.666;23.366;2023-03-11T14:58:33;5.13;;;3.20;;
40204;SDS011;26963;42.666;23.366;2023-03-11T15:01:12;5.88;;;3.22;;
40204;SDS011;26963;42.666;23.366;2023-03-11T15:06:35;3.05;;;1.42;;
40204;SDS011;26963;42.666;23.366;2023-03-11T15:09:07;3.88;;;2.10;;
40204;SDS011;26963;42.666;23.366;2023-03-11T15:11:44;4.35;;;2.40;;
40204;SDS011;26963;42.666;23.366;2023-03-11T15:14:53;4.15;;;2.00;;
40204;SDS011;26963;42.666;23.366;2023-03-11T15:19:45;7.15;;;3.20;;
40204;SDS011;26963;42.666;23.366;2023-03-11T15:22:27;5.15;;;2.17;;
40204;SDS011;26963;42.666;23.366;2023-03-11T15:24:59;4.70;;;2.17;;
40204;SDS011;26963;42.666;23.366;2023-03-11T15:27:31;7.28;;;3.38;;
40204;SDS011;26963;42.666;23.366;2023-03-11T15:29:58;8.80;;;3.20;;
40204;SDS011;26963;42.666;23.366;2023-03-11T15:32:36;6.40;;;2.60;;
40204;SDS011;26963;42.666;23.366;2023-03-11T15:37:32;5.07;;;2.50;;
40204;SDS011;26963;42.666;23.366;2023-03-11T15:45:41;8.73;;;5.53;;
40204;SDS011;26963;42.666;23.366;2023-03-11T15:48:08;7.70;;;3.70;;
40204;SDS011;26963;42.666;23.366;2023-03-11T15:50:35;8.00;;;3.00;;
40204;SDS011;26963;42.666;23.366;2023-03-11T15:53:01;6.10;;;2.83;;
40204;SDS011;26963;42.666;23.366;2023-03-11T15:55:29;8.45;;;3.53;;
40204;SDS011;26963;42.666;23.366;2023-03-11T15:57:57;8.35;;;3.72;;
40204;SDS011;26963;42.666;23.366;2023-03-11T16:00:29;7.28;;;4.30;;
40204;SDS011;26963;42.666;23.366;2023-03-11T16:02:55;6.13;;;3.65;;
40204;SDS011;26963;42.666;23.366;2023-03-11T16:05:21;5.70;;;3.25;;
40204;SDS011;26963;42.666;23.366;2023-03-11T16:07:48;5.40;;;3.67;;
40204;SDS011;26963;42.666;23.366;2023-03-11T16:10:15;7.32;;;4.05;;
40204;SDS011;26963;42.666;23.366;2023-03-11T16:12:43;5.57;;;3.67;;
40204;SDS011;26963;42.666;23.366;2023-03-11T16:15:14;4.85;;;3.58;;
40204;SDS011;26963;42.666;23.366;2023-03-11T16:17:52;6.60;;;4.15;;
40204;SDS011;26963;42.666;23.366;2023-03-11T16:20:21;9.13;;;5.63;;
40204;SDS011;26963;42.666;23.366;2023-03-11T16:22:49;5.32;;;3.95;;
40204;SDS011;26963;42.666;23.366;2023-03-11T16:25:38;4.72;;;3.50;;
40204;SDS011;26963;42.666;23.366;2023-03-11T16:28:04;4.18;;;3.60;;
40204;SDS011;26963;42.666;23.366;2023-03-11T16:30:31;6.07;;;3.50;;
40204;SDS011;26963;42.666;23.366;2023-03-11T16:33:00;5.55;;;3.75;;
40204;SDS011;26963;42.666;23.366;2023-03-11T16:35:26;5.97;;;3.67;;
40204;SDS011;26963;42.666;23.366;2023-03-11T16:37:54;6.07;;;3.80;;
40204;SDS011;26963;42.666;23.366;2023-03-11T16:40:21;6.88;;;4.63;;
40204;SDS011;26963;42.666;23.366;2023-03-11T16:42:56;7.75;;;4.40;;
40204;SDS011;26963;42.666;23.366;2023-03-11T16:45:27;7.40;;;4.78;;
40204;SDS011;26963;42.666;23.366;2023-03-11T16:47:53;6.30;;;3.42;;
40204;SDS011;26963;42.666;23.366;2023-03-11T16:50:19;5.88;;;2.20;;
40204;SDS011;26963;42.666;23.366;2023-03-11T16:52:45;3.95;;;2.92;;